sensor_id;sensor_type;location;lat;lon;timestamp;pressure;altitude;pressure_sealevel;temperature;humidity
65190;BME280;51777;53.570;9.984;2023-04-08T00:01:28;102100.88;;;7.26;100.00
65190;BME280;51777;53.570;9.984;2023-04-08T00:03:54;102102.97;;;7.05;100.00
65190;BME280;51777;53.570;9.984;2023-04-08T00:06:19;102099.66;;;7.17;100.00
65190;BME280;51777;53.570;9.984;2023-04-08T00:08:45;102103.44;;;7.12;100.00
65190;BME280;51777;53.570;9.984;2023-04-08T00:11:10;102098.66;;;7.05;100.00
65190;BME280;51777;53.570;9.984;2023-04-08T00:13:36;102102.44;;;7.14;100.00
65190;BME280;51777;53.570;9.984;2023-04-08T00:16:01;102109.13;;;7.02;100.00
65190;BME280;51777;53.570;9.984;2023-04-08T00:18:27;102108.00;;;7.06;100.00
65190;BME280;51777;53.570;9.984;2023-04-08T00:20:53;102114.38;;;7.15;100.00
65190;BME280;51777;53.570;9.984;2023-04-08T00:23:19;102110.31;;;6.97;100.00
65190;BME280;51777;53.570;9.984;2023-04-08T00:25:45;102114.00;;;7.07;100.00
65190;BME280;51777;53.570;9.984;2023-04-08T00:28:11;102122.19;;;7.14;100.00
65190;BME280;51777;53.570;9.984;2023-04-08T00:30:36;102119.59;;;7.14;100.00
65190;BME280;51777;53.570;9.984;2023-04-08T00:33:02;102111.28;;;6.94;100.00
65190;BME280;51777;53.570;9.984;2023-04-08T00:35:28;102115.16;;;6.87;100.00
65190;BME280;51777;53.570;9.984;2023-04-08T00:37:54;102114.22;;;6.88;100.00
65190;BME280;51777;53.570;9.984;2023-04-08T00:40:19;102111.44;;;7.07;100.00
65190;BME280;51777;53.570;9.984;2023-04-08T00:42:44;102114.84;;;7.07;100.00
65190;BME280;51777;53.570;9.984;2023-04-08T00:45:10;102116.03;;;7.16;100.00
65190;BME280;51777;53.570;9.984;2023-04-08T00:47:36;102114.94;;;7.20;100.00
65190;BME280;51777;53.570;9.984;2023-04-08T00:50:02;102115.31;;;7.28;100.00
65190;BME280;51777;53.570;9.984;2023-04-08T00:52:28;102118.16;;;7.24;100.00
65190;BME280;51777;53.570;9.984;2023-04-08T00:54:54;102114.47;;;7.14;100.00
65190;BME280;51777;53.570;9.984;2023-04-08T00:57:20;102110.25;;;7.13;100.00
65190;BME280;51777;53.570;9.984;2023-04-08T00:59:46;102117.84;;;7.00;100.00
65190;BME280;51777;53.570;9.984;2023-04-08T01:05:10;102124.66;;;7.15;100.00
65190;BME280;51777;53.570;9.984;2023-04-08T01:07:40;102123.75;;;7.16;100.00
65190;BME280;51777;53.570;9.984;2023-04-08T01:10:15;102126.06;;;6.91;100.00
65190;BME280;51777;53.570;9.984;2023-04-08T01:13:09;102122.16;;;6.99;100.00
65190;BME280;51777;53.570;9.984;2023-04-08T01:15:37;102110.94;;;7.00;100.00
65190;BME280;51777;53.570;9.984;2023-04-08T01:18:10;102119.69;;;7.12;100.00
65190;BME280;51777;53.570;9.984;2023-04-08T01:20:37;102120.88;;;7.06;100.00
65190;BME280;51777;53.570;9.984;2023-04-08T01:23:23;102124.66;;;7.15;100.00
65190;BME280;51777;53.570;9.984;2023-04-08T01:25:55;102119.00;;;7.24;100.00
65190;BME280;51777;53.570;9.984;2023-04-08T01:28:24;102126.09;;;7.35;100.00
65190;BME280;51777;53.570;9.984;2023-04-08T01:30:53;102126.28;;;7.46;100.00
65190;BME280;51777;53.570;9.984;2023-04-08T01:33:20;102117.06;;;7.28;100.00
65190;BME280;51777;53.570;9.984;2023-04-08T01:35:46;102117.88;;;7.28;100.00
65190;BME280;51777;53.570;9.984;2023-04-08T01:38:17;102114.06;;;7.05;100.00
65190;BME280;51777;53.570;9.984;2023-04-08T01:40:45;102111.91;;;7.14;100.00
65190;BME280;51777;53.570;9.984;2023-04-08T01:43:13;102113.34;;;7.18;100.00
65190;BME280;51777;53.570;9.984;2023-04-08T01:45:42;102107.22;;;7.20;100.00
65190;BME280;51777;53.570;9.984;2023-04-08T01:48:08;102117.34;;;7.23;100.00
65190;BME280;51777;53.570;9.984;2023-04-08T01:50:34;102116.03;;;7.16;100.00
65190;BME280;51777;53.570;9.984;2023-04-08T01:53:01;102120.72;;;7.24;100.00
65190;BME280;51777;53.570;9.984;2023-04-08T01:55:29;102116.50;;;7.23;100.00
65190;BME280;51777;53.570;9.984;2023-04-08T01:57:58;102114.03;;;7.21;100.00
65190;BME280;51777;53.570;9.984;2023-04-08T02:00:28;102104.72;;;7.19;100.00
65190;BME280;51777;53.570;9.984;2023-04-08T02:02:54;102098.22;;;7.27;100.00
65190;BME280;51777;53.570;9.984;2023-04-08T02:05:21;102099.88;;;7.28;100.00
65190;BME280;51777;53.570;9.984;2023-04-08T02:07:47;102100.28;;;7.06;100.00
65190;BME280;51777;53.570;9.984;2023-04-08T02:10:13;102102.34;;;7.16;100.00
65190;BME280;51777;53.570;9.984;2023-04-08T02:12:38;102105.09;;;7.13;100.00
65190;BME280;51777;53.570;9.984;2023-04-08T02:15:04;102098.91;;;7.01;100.00
65190;BME280;51777;53.570;9.984;2023-04-08T02:20:18;102093.09;;;6.83;100.00
65190;BME280;51777;53.570;9.984;2023-04-08T02:25:15;102092.75;;;6.89;100.00
65190;BME280;51777;53.570;9.984;2023-04-08T02:27:42;102090.31;;;6.72;100.00
65190;BME280;51777;53.570;9.984;2023-04-08T02:30:10;102087.59;;;6.89;100.00
65190;BME280;51777;53.570;9.984;2023-04-08T02:32:37;102091.38;;;6.84;100.00
65190;BME280;51777;53.570;9.984;2023-04-08T02:35:04;102091.78;;;6.76;100.00
65190;BME280;51777;53.570;9.984;2023-04-08T02:37:32;102089.50;;;6.71;100.00
65190;BME280;51777;53.570;9.984;2023-04-08T02:39:58;102092.44;;;6.80;100.00
65190;BME280;51777;53.570;9.984;2023-04-08T02:42:23;102090.13;;;6.75;100.00
65190;BME280;51777;53.570;9.984;2023-04-08T02:44:50;102087.38;;;6.78;100.00
65190;BME280;51777;53.570;9.984;2023-04-08T02:47:15;102094.84;;;6.83;100.00
65190;BME280;51777;53.570;9.984;2023-04-08T02:49:40;102103.53;;;6.80;100.00
65190;BME280;51777;53.570;9.984;2023-04-08T02:52:06;102103.03;;;6.89;100.00
65190;BME280;51777;53.570;9.984;2023-04-08T02:54:31;102103.25;;;7.00;100.00
65190;BME280;51777;53.570;9.984;2023-04-08T02:56:57;102105.41;;;6.92;100.00
65190;BME280;51777;53.570;9.984;2023-04-08T02:59:22;102110.34;;;6.81;100.00
65190;BME280;51777;53.570;9.984;2023-04-08T03:01:48;102114.19;;;6.74;100.00
65190;BME280;51777;53.570;9.984;2023-04-08T03:04:13;102111.84;;;6.85;100.00
65190;BME280;51777;53.570;9.984;2023-04-08T03:06:38;102104.78;;;6.89;100.00
65190;BME280;51777;53.570;9.984;2023-04-08T03:09:04;102100.22;;;6.78;100.00
65190;BME280;51777;53.570;9.984;2023-04-08T03:11:32;102111.53;;;6.75;100.00
65190;BME280;51777;53.570;9.984;2023-04-08T03:13:58;102110.91;;;6.86;100.00
65190;BME280;51777;53.570;9.984;2023-04-08T03:16:24;102107.31;;;6.74;100.00
65190;BME280;51777;53.570;9.984;2023-04-08T03:18:49;102114.38;;;6.71;100.00
65190;BME280;51777;53.570;9.984;2023-04-08T03:21:17;102111.72;;;6.57;100.00
65190;BME280;51777;53.570;9.984;2023-04-08T03:23:43;102117.28;;;6.65;100.00
65190;BME280;51777;53.570;9.984;2023-04-08T03:26:09;102112.72;;;6.54;100.00
65190;BME280;51777;53.570;9.984;2023-04-08T03:28:35;102122.34;;;6.51;100.00
65190;BME280;51777;53.570;9.984;2023-04-08T03:31:02;102125.63;;;6.68;100.00
65190;BME280;51777;53.570;9.984;2023-04-08T03:33:28;102131.25;;;6.75;100.00
65190;BME280;51777;53.570;9.984;2023-04-08T03:35:53;102132.59;;;6.82;100.00
65190;BME280;51777;53.570;9.984;2023-04-08T03:38:19;102142.00;;;6.82;100.00
65190;BME280;51777;53.570;9.984;2023-04-08T03:40:48;102140.22;;;6.68;100.00
65190;BME280;51777;53.570;9.984;2023-04-08T03:43:13;102145.75;;;6.46;100.00
65190;BME280;51777;53.570;9.984;2023-04-08T03:45:39;102141.44;;;6.46;100.00
65190;BME280;51777;53.570;9.984;2023-04-08T03:48:04;102141.72;;;6.56;100.00
65190;BME280;51777;53.570;9.984;2023-04-08T03:50:30;102135.25;;;6.65;100.00
65190;BME280;51777;53.570;9.984;2023-04-08T03:52:55;102138.56;;;6.67;100.00
65190;BME280;51777;53.570;9.984;2023-04-08T03:55:21;102138.25;;;6.57;100.00
65190;BME280;51777;53.570;9.984;2023-04-08T03:57:46;102142.25;;;6.47;100.00
65190;BME280;51777;53.570;9.984;2023-04-08T04:00:12;102144.31;;;6.40;100.00
65190;BME280;51777;53.570;9.984;2023-04-08T04:02:38;102141.56;;;6.43;100.00
65190;BME280;51777;53.570;9.984;2023-04-08T04:05:04;102149.13;;;6.46;100.00
65190;BME280;51777;53.570;9.984;2023-04-08T04:07:30;102145.00;;;6.28;100.00
65190;BME280;51777;53.570;9.984;2023-04-08T04:09:55;102146.00;;;6.10;100.00
65190;BME280;51777;53.570;9.984;2023-04-08T04:12:22;102146.72;;;6.12;100.00
65190;BME280;51777;53.570;9.984;2023-04-08T04:14:47;102150.59;;;6.03;100.00
65190;BME280;51777;53.570;9.984;2023-04-08T04:17:12;102154.00;;;6.04;100.00
65190;BME280;51777;53.570;9.984;2023-04-08T04:19:38;102151.34;;;6.05;100.00
65190;BME280;51777;53.570;9.984;2023-04-08T04:22:03;102158.31;;;6.19;100.00
65190;BME280;51777;53.570;9.984;2023-04-08T04:24:28;102163.72;;;6.30;100.00
65190;BME280;51777;53.570;9.984;2023-04-08T04:26:54;102164.13;;;6.38;100.00
65190;BME280;51777;53.570;9.984;2023-04-08T04:29:19;102169.94;;;6.42;100.00
65190;BME280;51777;53.570;9.984;2023-04-08T04:31:45;102164.41;;;6.34;100.00
65190;BME280;51777;53.570;9.984;2023-04-08T04:34:10;102163.22;;;6.24;100.00
65190;BME280;51777;53.570;9.984;2023-04-08T04:36:36;102159.97;;;6.20;100.00
65190;BME280;51777;53.570;9.984;2023-04-08T04:39:01;102164.22;;;6.21;100.00
65190;BME280;51777;53.570;9.984;2023-04-08T04:41:27;102159.97;;;6.20;100.00
65190;BME280;51777;53.570;9.984;2023-04-08T04:43:52;102167.38;;;6.26;100.00
65190;BME280;51777;53.570;9.984;2023-04-08T04:46:18;102172.41;;;6.28;100.00
65190;BME280;51777;53.570;9.984;2023-04-08T04:48:43;102175.38;;;6.20;100.00
65190;BME280;51777;53.570;9.984;2023-04-08T04:51:08;102179.47;;;6.24;100.00
65190;BME280;51777;53.570;9.984;2023-04-08T04:53:34;102180.53;;;6.36;100.00
65190;BME280;51777;53.570;9.984;2023-04-08T04:55:59;102186.16;;;6.42;100.00
65190;BME280;51777;53.570;9.984;2023-04-08T04:58:26;102188.47;;;6.31;100.00
65190;BME280;51777;53.570;9.984;2023-04-08T05:00:51;102189.25;;;6.33;100.00
65190;BME280;51777;53.570;9.984;2023-04-08T05:03:16;102193.13;;;6.40;100.00
65190;BME280;51777;53.570;9.984;2023-04-08T05:05:42;102196.94;;;6.49;100.00
65190;BME280;51777;53.570;9.984;2023-04-08T05:08:07;102197.19;;;6.44;100.00
65190;BME280;51777;53.570;9.984;2023-04-08T05:10:32;102199.44;;;6.51;100.00
65190;BME280;51777;53.570;9.984;2023-04-08T05:12:58;102200.78;;;6.58;100.00
65190;BME280;51777;53.570;9.984;2023-04-08T05:15:23;102202.09;;;6.49;100.00
65190;BME280;51777;53.570;9.984;2023-04-08T05:17:48;102198.59;;;6.50;100.00
65190;BME280;51777;53.570;9.984;2023-04-08T05:20:14;102196.44;;;6.42;100.00
65190;BME280;51777;53.570;9.984;2023-04-08T05:22:39;102196.44;;;6.42;100.00
65190;BME280;51777;53.570;9.984;2023-04-08T05:25:07;102203.75;;;6.34;100.00
65190;BME280;51777;53.570;9.984;2023-04-08T05:27:32;102204.56;;;6.35;100.00
65190;BME280;51777;53.570;9.984;2023-04-08T05:29:57;102200.09;;;6.38;100.00
65190;BME280;51777;53.570;9.984;2023-04-08T05:32:23;102207.88;;;6.37;100.00
65190;BME280;51777;53.570;9.984;2023-04-08T05:34:48;102206.53;;;6.14;100.00
65190;BME280;51777;53.570;9.984;2023-04-08T05:37:13;102205.16;;;6.24;100.00
65190;BME280;51777;53.570;9.984;2023-04-08T05:39:39;102206.88;;;6.24;100.00
65190;BME280;51777;53.570;9.984;2023-04-08T05:42:04;102213.25;;;6.32;100.00
65190;BME280;51777;53.570;9.984;2023-04-08T05:44:30;102222.88;;;6.44;100.00
65190;BME280;51777;53.570;9.984;2023-04-08T05:46:55;102218.91;;;6.55;100.00
65190;BME280;51777;53.570;9.984;2023-04-08T05:49:21;102217.34;;;6.52;100.00
65190;BME280;51777;53.570;9.984;2023-04-08T05:51:47;102218.34;;;6.50;100.00
65190;BME280;51777;53.570;9.984;2023-04-08T05:54:12;102217.16;;;6.24;100.00
65190;BME280;51777;53.570;9.984;2023-04-08T05:56:38;102220.47;;;6.41;100.00
65190;BME280;51777;53.570;9.984;2023-04-08T05:59:03;102224.78;;;6.25;100.00
65190;BME280;51777;53.570;9.984;2023-04-08T06:01:28;102219.47;;;6.28;100.00
65190;BME280;51777;53.570;9.984;2023-04-08T06:03:54;102222.88;;;6.44;100.00
65190;BME280;51777;53.570;9.984;2023-04-08T06:06:21;102231.00;;;6.53;100.00
65190;BME280;51777;53.570;9.984;2023-04-08T06:08:47;102231.44;;;6.61;100.00
65190;BME280;51777;53.570;9.984;2023-04-08T06:11:12;102233.84;;;6.48;100.00
65190;BME280;51777;53.570;9.984;2023-04-08T06:13:37;102233.25;;;6.59;100.00
65190;BME280;51777;53.570;9.984;2023-04-08T06:16:14;102239.47;;;6.39;100.00
65190;BME280;51777;53.570;9.984;2023-04-08T06:18:39;102238.97;;;6.48;100.00
65190;BME280;51777;53.570;9.984;2023-04-08T06:21:05;102243.03;;;6.68;100.00
65190;BME280;51777;53.570;9.984;2023-04-08T06:23:31;102251.56;;;6.68;100.00
65190;BME280;51777;53.570;9.984;2023-04-08T06:25:56;102253.38;;;6.66;100.00
65190;BME280;51777;53.570;9.984;2023-04-08T06:28:23;102255.38;;;6.45;100.00
65190;BME280;51777;53.570;9.984;2023-04-08T06:30:48;102257.88;;;6.47;100.00
65190;BME280;51777;53.570;9.984;2023-04-08T06:33:16;102256.88;;;6.34;100.00
65190;BME280;51777;53.570;9.984;2023-04-08T06:35:42;102264.31;;;6.54;100.00
65190;BME280;51777;53.570;9.984;2023-04-08T06:38:07;102263.41;;;6.39;100.00
65190;BME280;51777;53.570;9.984;2023-04-08T06:40:32;102267.31;;;6.46;100.00
65190;BME280;51777;53.570;9.984;2023-04-08T06:42:58;102266.88;;;6.38;100.00
65190;BME280;51777;53.570;9.984;2023-04-08T06:45:23;102281.97;;;6.44;100.00
65190;BME280;51777;53.570;9.984;2023-04-08T06:47:48;102272.78;;;6.40;100.00
65190;BME280;51777;53.570;9.984;2023-04-08T06:50:14;102271.31;;;6.19;100.00
65190;BME280;51777;53.570;9.984;2023-04-08T06:52:40;102282.31;;;6.38;100.00
65190;BME280;51777;53.570;9.984;2023-04-08T06:55:06;102287.34;;;6.40;100.00
65190;BME280;51777;53.570;9.984;2023-04-08T06:57:31;102281.00;;;6.47;100.00
65190;BME280;51777;53.570;9.984;2023-04-08T06:59:56;102292.50;;;6.56;100.00
65190;BME280;51777;53.570;9.984;2023-04-08T07:02:22;102287.34;;;6.40;100.00
65190;BME280;51777;53.570;9.984;2023-04-08T07:04:47;102289.63;;;6.46;100.00
65190;BME280;51777;53.570;9.984;2023-04-08T07:07:13;102289.38;;;6.51;100.00
65190;BME280;51777;53.570;9.984;2023-04-08T07:09:38;102287.28;;;6.57;100.00
65190;BME280;51777;53.570;9.984;2023-04-08T07:12:05;102294.13;;;6.74;100.00
65190;BME280;51777;53.570;9.984;2023-04-08T07:14:31;102299.44;;;6.87;100.00
65190;BME280;51777;53.570;9.984;2023-04-08T07:16:56;102296.50;;;6.77;100.00
65190;BME280;51777;53.570;9.984;2023-04-08T07:19:21;102295.28;;;6.84;100.00
65190;BME280;51777;53.570;9.984;2023-04-08T07:21:48;102294.28;;;6.71;100.00
65190;BME280;51777;53.570;9.984;2023-04-08T07:24:13;102297.78;;;6.70;100.00
65190;BME280;51777;53.570;9.984;2023-04-08T07:26:40;102300.34;;;6.86;100.00
65190;BME280;51777;53.570;9.984;2023-04-08T07:29:05;102306.22;;;6.72;100.00
65190;BME280;51777;53.570;9.984;2023-04-08T07:31:31;102300.25;;;6.71;100.00
65190;BME280;51777;53.570;9.984;2023-04-08T07:33:56;102305.22;;;6.74;100.00
65190;BME280;51777;53.570;9.984;2023-04-08T07:36:21;102295.28;;;6.84;100.00
65190;BME280;51777;53.570;9.984;2023-04-08T07:38:47;102306.38;;;6.69;100.00
65190;BME280;51777;53.570;9.984;2023-04-08T07:41:12;102320.56;;;6.76;100.00
65190;BME280;51777;53.570;9.984;2023-04-08T07:43:37;102306.66;;;6.96;100.00
65190;BME280;51777;53.570;9.984;2023-04-08T07:46:04;102317.25;;;7.05;100.00
65190;BME280;51777;53.570;9.984;2023-04-08T07:48:30;102318.00;;;6.92;100.00
65190;BME280;51777;53.570;9.984;2023-04-08T07:50:56;102319.25;;;7.00;100.00
65190;BME280;51777;53.570;9.984;2023-04-08T07:53:22;102330.03;;;6.91;100.00
65190;BME280;51777;53.570;9.984;2023-04-08T07:55:51;102330.03;;;6.91;100.00
65190;BME280;51777;53.570;9.984;2023-04-08T07:58:16;102334.91;;;6.80;100.00
65190;BME280;51777;53.570;9.984;2023-04-08T08:00:41;102339.13;;;6.81;100.00
65190;BME280;51777;53.570;9.984;2023-04-08T08:03:07;102340.88;;;6.81;100.00
65190;BME280;51777;53.570;9.984;2023-04-08T08:05:32;102340.81;;;6.82;100.00
65190;BME280;51777;53.570;9.984;2023-04-08T08:07:57;102345.19;;;6.80;100.00
65190;BME280;51777;53.570;9.984;2023-04-08T08:10:23;102346.69;;;7.00;100.00
65190;BME280;51777;53.570;9.984;2023-04-08T08:12:49;102344.22;;;6.98;100.00
65190;BME280;51777;53.570;9.984;2023-04-08T08:15:14;102343.72;;;7.07;100.00
65190;BME280;51777;53.570;9.984;2023-04-08T08:17:40;102341.03;;;6.93;100.00
65190;BME280;51777;53.570;9.984;2023-04-08T08:20:06;102351.16;;;6.81;100.00
65190;BME280;51777;53.570;9.984;2023-04-08T08:22:32;102346.00;;;6.81;100.00
65190;BME280;51777;53.570;9.984;2023-04-08T08:24:57;102344.78;;;6.72;100.00
65190;BME280;51777;53.570;9.984;2023-04-08T08:27:24;102351.09;;;6.82;100.00
65190;BME280;51777;53.570;9.984;2023-04-08T08:29:50;102357.25;;;6.95;100.00
65190;BME280;51777;53.570;9.984;2023-04-08T08:32:16;102350.59;;;6.91;100.00
65190;BME280;51777;53.570;9.984;2023-04-08T08:34:45;102349.09;;;6.87;100.00
65190;BME280;51777;53.570;9.984;2023-04-08T08:37:11;102344.31;;;6.97;100.00
65190;BME280;51777;53.570;9.984;2023-04-08T08:39:36;102355.84;;;7.21;100.00
65190;BME280;51777;53.570;9.984;2023-04-08T08:42:02;102354.84;;;7.24;100.00
65190;BME280;51777;53.570;9.984;2023-04-08T08:44:28;102365.78;;;7.12;100.00
65190;BME280;51777;53.570;9.984;2023-04-08T08:46:54;102363.97;;;7.14;100.00
65190;BME280;51777;53.570;9.984;2023-04-08T08:49:20;102365.28;;;7.21;100.00
65190;BME280;51777;53.570;9.984;2023-04-08T08:51:45;102363.53;;;7.37;100.00
65190;BME280;51777;53.570;9.984;2023-04-08T08:54:14;102374.38;;;7.58;100.00
65190;BME280;51777;53.570;9.984;2023-04-08T08:56:49;102378.09;;;7.68;100.00
65190;BME280;51777;53.570;9.984;2023-04-08T08:59:14;102380.59;;;7.70;100.00
65190;BME280;51777;53.570;9.984;2023-04-08T09:01:40;102376.38;;;7.53;100.00
65190;BME280;51777;53.570;9.984;2023-04-08T09:04:16;102379.88;;;7.36;100.00
65190;BME280;51777;53.570;9.984;2023-04-08T09:06:43;102378.56;;;7.29;100.00
65190;BME280;51777;53.570;9.984;2023-04-08T09:09:09;102379.53;;;7.42;100.00
65190;BME280;51777;53.570;9.984;2023-04-08T09:11:39;102381.66;;;7.65;100.00
65190;BME280;51777;53.570;9.984;2023-04-08T09:14:07;102371.03;;;7.72;100.00
65190;BME280;51777;53.570;9.984;2023-04-08T09:16:47;102389.09;;;7.86;100.00
65190;BME280;51777;53.570;9.984;2023-04-08T09:19:13;102390.75;;;7.87;100.00
65190;BME280;51777;53.570;9.984;2023-04-08T09:21:39;102384.91;;;7.69;100.00
65190;BME280;51777;53.570;9.984;2023-04-08T09:24:06;102388.19;;;7.57;100.00
65190;BME280;51777;53.570;9.984;2023-04-08T09:26:31;102387.72;;;7.64;100.00
65190;BME280;51777;53.570;9.984;2023-04-08T09:31:28;102398.13;;;7.93;100.00
65190;BME280;51777;53.570;9.984;2023-04-08T09:33:59;102391.56;;;8.17;100.00
65190;BME280;51777;53.570;9.984;2023-04-08T09:36:27;102395.16;;;8.15;100.00
65190;BME280;51777;53.570;9.984;2023-04-08T09:38:54;102401.56;;;8.38;100.00
65190;BME280;51777;53.570;9.984;2023-04-08T09:41:20;102402.25;;;8.25;100.00
65190;BME280;51777;53.570;9.984;2023-04-08T09:43:54;102411.69;;;8.41;100.00
65190;BME280;51777;53.570;9.984;2023-04-08T09:46:39;102410.31;;;8.49;100.00
65190;BME280;51777;53.570;9.984;2023-04-08T09:49:12;102407.66;;;8.07;100.00
65190;BME280;51777;53.570;9.984;2023-04-08T09:51:48;102402.06;;;8.29;100.00
65190;BME280;51777;53.570;9.984;2023-04-08T09:54:18;102402.00;;;8.00;100.00
65190;BME280;51777;53.570;9.984;2023-04-08T09:56:53;102400.94;;;8.34;100.00
65190;BME280;51777;53.570;9.984;2023-04-08T09:59:24;102409.06;;;8.57;100.00
65190;BME280;51777;53.570;9.984;2023-04-08T10:01:53;102405.56;;;8.43;100.00
65190;BME280;51777;53.570;9.984;2023-04-08T10:04:22;102403.44;;;8.64;100.00
65190;BME280;51777;53.570;9.984;2023-04-08T10:06:53;102409.59;;;8.62;100.00
65190;BME280;51777;53.570;9.984;2023-04-08T10:09:22;102407.75;;;8.35;100.00
65190;BME280;51777;53.570;9.984;2023-04-08T10:11:49;102408.19;;;8.42;100.00
65190;BME280;51777;53.570;9.984;2023-04-08T10:14:15;102410.38;;;8.34;100.00
65190;BME280;51777;53.570;9.984;2023-04-08T10:16:40;102408.50;;;8.07;100.00
65190;BME280;51777;53.570;9.984;2023-04-08T10:19:38;102397.75;;;8.29;100.00
65190;BME280;51777;53.570;9.984;2023-04-08T10:22:45;102410.72;;;8.72;100.00
65190;BME280;51777;53.570;9.984;2023-04-08T10:27:42;102404.78;;;8.98;100.00
65190;BME280;51777;53.570;9.984;2023-04-08T10:32:55;102411.25;;;8.77;100.00
65190;BME280;51777;53.570;9.984;2023-04-08T10:35:31;102417.16;;;8.93;100.00
65190;BME280;51777;53.570;9.984;2023-04-08T10:37:57;102421.47;;;8.78;100.00
65190;BME280;51777;53.570;9.984;2023-04-08T10:40:25;102417.63;;;8.86;100.00
65190;BME280;51777;53.570;9.984;2023-04-08T10:45:20;102413.00;;;8.48;100.00
65190;BME280;51777;53.570;9.984;2023-04-08T10:47:46;102422.78;;;8.57;100.00
65190;BME280;51777;53.570;9.984;2023-04-08T10:50:13;102419.00;;;8.63;100.00
65190;BME280;51777;53.570;9.984;2023-04-08T10:52:53;102421.66;;;8.61;100.00
65190;BME280;51777;53.570;9.984;2023-04-08T10:55:25;102417.34;;;8.47;100.00
65190;BME280;51777;53.570;9.984;2023-04-08T10:57:51;102420.44;;;8.52;100.00
65190;BME280;51777;53.570;9.984;2023-04-08T11:00:18;102407.97;;;8.31;100.00
65190;BME280;51777;53.570;9.984;2023-04-08T11:02:44;102420.25;;;8.56;100.00
65190;BME280;51777;53.570;9.984;2023-04-08T11:05:10;102420.75;;;8.62;100.00
65190;BME280;51777;53.570;9.984;2023-04-08T11:07:40;102425.25;;;8.59;100.00
65190;BME280;51777;53.570;9.984;2023-04-08T11:10:07;102427.44;;;8.50;100.00
65190;BME280;51777;53.570;9.984;2023-04-08T11:12:34;102420.16;;;8.43;100.00
65190;BME280;51777;53.570;9.984;2023-04-08T11:15:00;102427.06;;;8.42;100.00
65190;BME280;51777;53.570;9.984;2023-04-08T11:17:27;102428.66;;;8.59;100.00
65190;BME280;51777;53.570;9.984;2023-04-08T11:19:53;102427.66;;;8.76;100.00
65190;BME280;51777;53.570;9.984;2023-04-08T11:22:19;102430.59;;;8.84;100.00
65190;BME280;51777;53.570;9.984;2023-04-08T11:24:45;102429.50;;;8.74;100.00
65190;BME280;51777;53.570;9.984;2023-04-08T11:27:11;102420.25;;;8.41;100.00
65190;BME280;51777;53.570;9.984;2023-04-08T11:29:36;102423.50;;;8.59;100.00
65190;BME280;51777;53.570;9.984;2023-04-08T11:32:02;102428.56;;;8.61;100.00
65190;BME280;51777;53.570;9.984;2023-04-08T11:34:28;102421.75;;;8.30;100.00
65190;BME280;51777;53.570;9.984;2023-04-08T11:36:55;102424.25;;;8.61;100.00
65190;BME280;51777;53.570;9.984;2023-04-08T11:39:24;102417.81;;;8.82;100.00
65190;BME280;51777;53.570;9.984;2023-04-08T11:41:50;102425.81;;;9.06;100.00
65190;BME280;51777;53.570;9.984;2023-04-08T11:44:15;102431.22;;;9.16;100.00
65190;BME280;51777;53.570;9.984;2023-04-08T11:46:51;102427.44;;;9.22;100.00
65190;BME280;51777;53.570;9.984;2023-04-08T11:49:19;102431.22;;;9.02;100.00
65190;BME280;51777;53.570;9.984;2023-04-08T11:51:55;102430.94;;;8.92;100.00
65190;BME280;51777;53.570;9.984;2023-04-08T11:54:29;102432.53;;;8.80;100.00
65190;BME280;51777;53.570;9.984;2023-04-08T11:56:54;102431.06;;;8.76;100.00
65190;BME280;51777;53.570;9.984;2023-04-08T11:59:22;102428.19;;;8.67;100.00
65190;BME280;51777;53.570;9.984;2023-04-08T12:01:48;102435.56;;;8.87;100.00
65190;BME280;51777;53.570;9.984;2023-04-08T12:04:13;102438.25;;;8.86;100.00
65190;BME280;51777;53.570;9.984;2023-04-08T12:06:38;102433.91;;;8.86;100.00
65190;BME280;51777;53.570;9.984;2023-04-08T12:09:07;102433.63;;;9.05;100.00
65190;BME280;51777;53.570;9.984;2023-04-08T12:11:33;102438.13;;;9.16;100.00
65190;BME280;51777;53.570;9.984;2023-04-08T12:13:58;102444.03;;;8.89;100.00
65190;BME280;51777;53.570;9.984;2023-04-08T12:16:24;102440.84;;;8.71;100.00
65190;BME280;51777;53.570;9.984;2023-04-08T12:18:50;102442.75;;;8.96;100.00
65190;BME280;51777;53.570;9.984;2023-04-08T12:21:15;102446.63;;;8.75;100.00
65190;BME280;51777;53.570;9.984;2023-04-08T12:23:41;102435.94;;;8.95;100.00
65190;BME280;51777;53.570;9.984;2023-04-08T12:26:06;102436.03;;;8.65;100.00
65190;BME280;51777;53.570;9.984;2023-04-08T12:28:32;102436.22;;;8.91;100.00
65190;BME280;51777;53.570;9.984;2023-04-08T12:30:58;102444.09;;;9.16;100.00
65190;BME280;51777;53.570;9.984;2023-04-08T12:33:24;102438.94;;;9.30;100.00
65190;BME280;51777;53.570;9.984;2023-04-08T12:35:49;102439.69;;;9.32;100.00
65190;BME280;51777;53.570;9.984;2023-04-08T12:38:15;102437.09;;;9.32;100.00
65190;BME280;51777;53.570;9.984;2023-04-08T12:40:40;102442.88;;;9.36;100.00
65190;BME280;51777;53.570;9.984;2023-04-08T12:43:06;102444.13;;;9.30;100.00
65190;BME280;51777;53.570;9.984;2023-04-08T12:45:31;102446.81;;;9.00;100.00
65190;BME280;51777;53.570;9.984;2023-04-08T12:47:56;102441.72;;;9.13;100.00
65190;BME280;51777;53.570;9.984;2023-04-08T12:50:22;102447.97;;;9.23;100.00
65190;BME280;51777;53.570;9.984;2023-04-08T12:52:47;102441.66;;;9.41;100.00
65190;BME280;51777;53.570;9.984;2023-04-08T12:55:13;102444.13;;;9.02;100.00
65190;BME280;51777;53.570;9.984;2023-04-08T12:57:38;102449.69;;;8.96;100.00
65190;BME280;51777;53.570;9.984;2023-04-08T13:00:04;102447.63;;;9.15;100.00
65190;BME280;51777;53.570;9.984;2023-04-08T13:02:30;102448.03;;;8.95;100.00
65190;BME280;51777;53.570;9.984;2023-04-08T13:04:55;102452.91;;;8.85;100.00
65190;BME280;51777;53.570;9.984;2023-04-08T13:07:21;102459.22;;;8.79;100.00